sensor_id;sensor_type;location;lat;lon;timestamp;P1;durP1;ratioP1;P2;durP2;ratioP2
23868;SDS011;12115;47.128;15.422;2024-03-23T00:56:14;3.33;;;2.40;;
23868;SDS011;12115;47.128;15.422;2024-03-23T00:58:40;4.50;;;2.53;;
23868;SDS011;12115;47.128;15.422;2024-03-23T01:01:06;5.13;;;2.60;;
23868;SDS011;12115;47.128;15.422;2024-03-23T01:03:33;4.30;;;2.38;;
23868;SDS011;12115;47.128;15.422;2024-03-23T01:05:59;5.45;;;2.65;;
23868;SDS011;12115;47.128;15.422;2024-03-23T01:08:26;5.35;;;2.63;;
23868;SDS011;12115;47.128;15.422;2024-03-23T01:11:01;6.72;;;2.78;;
23868;SDS011;12115;47.128;15.422;2024-03-23T01:13:29;4.18;;;2.83;;
23868;SDS011;12115;47.128;15.422;2024-03-23T01:15:55;6.47;;;3.00;;
23868;SDS011;12115;47.128;15.422;2024-03-23T01:18:23;3.35;;;2.20;;
23868;SDS011;12115;47.128;15.422;2024-03-23T01:20:51;5.78;;;2.90;;
23868;SDS011;12115;47.128;15.422;2024-03-23T01:23:18;4.05;;;2.80;;
23868;SDS011;12115;47.128;15.422;2024-03-23T01:25:50;6.75;;;3.33;;
23868;SDS011;12115;47.128;15.422;2024-03-23T01:28:18;6.13;;;2.88;;
23868;SDS011;12115;47.128;15.422;2024-03-23T01:30:45;4.40;;;2.60;;
23868;SDS011;12115;47.128;15.422;2024-03-23T01:33:11;4.80;;;2.88;;
23868;SDS011;12115;47.128;15.422;2024-03-23T01:35:37;3.97;;;2.80;;
23868;SDS011;12115;47.128;15.422;2024-03-23T01:38:04;4.30;;;2.70;;
23868;SDS011;12115;47.128;15.422;2024-03-23T01:40:30;4.47;;;2.65;;
23868;SDS011;12115;47.128;15.422;2024-03-23T01:43:03;6.13;;;2.90;;
23868;SDS011;12115;47.128;15.422;2024-03-23T01:45:30;4.65;;;2.70;;
23868;SDS011;12115;47.128;15.422;2024-03-23T01:50:49;5.60;;;3.20;;
23868;SDS011;12115;47.128;15.422;2024-03-23T01:53:16;4.95;;;2.85;;
23868;SDS011;12115;47.128;15.422;2024-03-23T01:55:47;3.58;;;2.40;;
23868;SDS011;12115;47.128;15.422;2024-03-23T01:58:14;4.90;;;2.90;;
23868;SDS011;12115;47.128;15.422;2024-03-23T02:00:40;6.53;;;2.97;;
23868;SDS011;12115;47.128;15.422;2024-03-23T02:03:25;3.83;;;2.75;;
23868;SDS011;12115;47.128;15.422;2024-03-23T02:05:53;3.53;;;2.63;;
23868;SDS011;12115;47.128;15.422;2024-03-23T02:08:21;4.97;;;2.85;;
23868;SDS011;12115;47.128;15.422;2024-03-23T02:10:48;3.92;;;2.60;;
23868;SDS011;12115;47.128;15.422;2024-03-23T02:13:17;3.83;;;2.38;;
23868;SDS011;12115;47.128;15.422;2024-03-23T02:15:44;5.00;;;2.80;;
23868;SDS011;12115;47.128;15.422;2024-03-23T02:18:10;3.53;;;2.30;;
23868;SDS011;12115;47.128;15.422;2024-03-23T02:20:37;4.72;;;2.47;;
23868;SDS011;12115;47.128;15.422;2024-03-23T02:23:04;5.80;;;3.03;;
23868;SDS011;12115;47.128;15.422;2024-03-23T02:25:33;3.97;;;2.50;;
23868;SDS011;12115;47.128;15.422;2024-03-23T02:27:59;3.22;;;2.40;;
23868;SDS011;12115;47.128;15.422;2024-03-23T02:30:26;3.83;;;2.58;;
23868;SDS011;12115;47.128;15.422;2024-03-23T02:32:52;4.47;;;2.42;;
23868;SDS011;12115;47.128;15.422;2024-03-23T02:35:18;5.50;;;2.60;;
23868;SDS011;12115;47.128;15.422;2024-03-23T02:37:46;7.85;;;2.70;;
23868;SDS011;12115;47.128;15.422;2024-03-23T02:40:14;3.63;;;2.47;;
23868;SDS011;12115;47.128;15.422;2024-03-23T02:42:41;5.00;;;2.50;;
23868;SDS011;12115;47.128;15.422;2024-03-23T02:45:07;4.55;;;2.78;;
23868;SDS011;12115;47.128;15.422;2024-03-23T02:47:33;5.82;;;2.83;;
23868;SDS011;12115;47.128;15.422;2024-03-23T02:50:00;3.80;;;2.50;;
23868;SDS011;12115;47.128;15.422;2024-03-23T02:52:26;3.38;;;2.58;;
23868;SDS011;12115;47.128;15.422;2024-03-23T02:54:52;4.72;;;2.67;;
23868;SDS011;12115;47.128;15.422;2024-03-23T02:57:18;5.75;;;2.85;;
23868;SDS011;12115;47.128;15.422;2024-03-23T02:59:45;4.72;;;3.00;;
23868;SDS011;12115;47.128;15.422;2024-03-23T03:02:11;4.55;;;2.40;;
23868;SDS011;12115;47.128;15.422;2024-03-23T03:04:38;4.93;;;2.55;;
23868;SDS011;12115;47.128;15.422;2024-03-23T03:07:04;7.22;;;2.80;;
23868;SDS011;12115;47.128;15.422;2024-03-23T03:09:30;4.57;;;2.42;;
23868;SDS011;12115;47.128;15.422;2024-03-23T03:11:57;3.30;;;2.45;;
23868;SDS011;12115;47.128;15.422;2024-03-23T03:14:24;4.78;;;2.30;;
23868;SDS011;12115;47.128;15.422;2024-03-23T03:16:50;3.60;;;2.60;;
23868;SDS011;12115;47.128;15.422;2024-03-23T03:19:16;3.45;;;2.50;;
23868;SDS011;12115;47.128;15.422;2024-03-23T03:21:42;4.25;;;2.75;;
23868;SDS011;12115;47.128;15.422;2024-03-23T03:24:09;4.97;;;2.70;;
23868;SDS011;12115;47.128;15.422;2024-03-23T03:26:35;3.90;;;2.35;;
23868;SDS011;12115;47.128;15.422;2024-03-23T03:29:02;4.22;;;2.53;;
23868;SDS011;12115;47.128;15.422;2024-03-23T03:31:28;3.03;;;2.55;;
23868;SDS011;12115;47.128;15.422;2024-03-23T03:33:54;3.75;;;2.50;;
23868;SDS011;12115;47.128;15.422;2024-03-23T03:36:20;4.57;;;2.45;;
23868;SDS011;12115;47.128;15.422;2024-03-23T03:38:46;6.60;;;3.22;;
23868;SDS011;12115;47.128;15.422;2024-03-23T03:41:12;3.08;;;2.35;;
23868;SDS011;12115;47.128;15.422;2024-03-23T03:43:38;3.80;;;2.40;;
23868;SDS011;12115;47.128;15.422;2024-03-23T03:46:05;3.25;;;2.58;;
23868;SDS011;12115;47.128;15.422;2024-03-23T03:48:33;4.72;;;2.40;;
23868;SDS011;12115;47.128;15.422;2024-03-23T03:50:59;4.32;;;2.70;;
23868;SDS011;12115;47.128;15.422;2024-03-23T03:53:26;4.15;;;2.53;;
23868;SDS011;12115;47.128;15.422;2024-03-23T03:55:52;3.10;;;2.53;;
23868;SDS011;12115;47.128;15.422;2024-03-23T03:58:18;4.90;;;2.38;;
23868;SDS011;12115;47.128;15.422;2024-03-23T04:00:44;2.85;;;2.05;;
23868;SDS011;12115;47.128;15.422;2024-03-23T04:03:10;4.90;;;2.40;;
23868;SDS011;12115;47.128;15.422;2024-03-23T04:05:37;3.60;;;2.58;;
23868;SDS011;12115;47.128;15.422;2024-03-23T04:08:03;4.95;;;2.60;;
23868;SDS011;12115;47.128;15.422;2024-03-23T04:10:30;3.78;;;2.63;;
23868;SDS011;12115;47.128;15.422;2024-03-23T04:12:56;3.95;;;2.45;;
23868;SDS011;12115;47.128;15.422;2024-03-23T04:15:22;2.90;;;2.35;;
23868;SDS011;12115;47.128;15.422;2024-03-23T04:17:48;4.15;;;2.30;;
23868;SDS011;12115;47.128;15.422;2024-03-23T04:20:15;3.45;;;2.25;;
23868;SDS011;12115;47.128;15.422;2024-03-23T04:22:45;3.97;;;2.60;;
23868;SDS011;12115;47.128;15.422;2024-03-23T04:25:13;3.33;;;2.47;;
23868;SDS011;12115;47.128;15.422;2024-03-23T04:27:40;4.90;;;2.65;;
23868;SDS011;12115;47.128;15.422;2024-03-23T04:30:07;6.20;;;2.95;;
23868;SDS011;12115;47.128;15.422;2024-03-23T04:32:37;3.75;;;2.80;;
23868;SDS011;12115;47.128;15.422;2024-03-23T04:35:03;4.10;;;2.88;;
23868;SDS011;12115;47.128;15.422;2024-03-23T04:37:39;4.72;;;2.58;;
23868;SDS011;12115;47.128;15.422;2024-03-23T04:40:08;5.10;;;2.58;;
23868;SDS011;12115;47.128;15.422;2024-03-23T04:42:36;4.57;;;2.45;;
23868;SDS011;12115;47.128;15.422;2024-03-23T04:45:03;5.03;;;2.90;;
23868;SDS011;12115;47.128;15.422;2024-03-23T04:47:31;6.35;;;2.75;;
23868;SDS011;12115;47.128;15.422;2024-03-23T04:49:58;5.30;;;2.55;;
23868;SDS011;12115;47.128;15.422;2024-03-23T04:52:24;3.33;;;2.50;;
23868;SDS011;12115;47.128;15.422;2024-03-23T04:54:50;4.00;;;2.65;;
23868;SDS011;12115;47.128;15.422;2024-03-23T04:57:16;5.55;;;3.15;;
23868;SDS011;12115;47.128;15.422;2024-03-23T04:59:45;6.20;;;2.97;;
23868;SDS011;12115;47.128;15.422;2024-03-23T05:02:13;7.00;;;2.40;;
23868;SDS011;12115;47.128;15.422;2024-03-23T05:04:40;6.25;;;2.90;;
23868;SDS011;12115;47.128;15.422;2024-03-23T05:07:06;5.88;;;3.60;;
23868;SDS011;12115;47.128;15.422;2024-03-23T05:09:33;6.93;;;3.65;;
23868;SDS011;12115;47.128;15.422;2024-03-23T05:11:59;4.20;;;3.38;;
23868;SDS011;12115;47.128;15.422;2024-03-23T05:14:26;5.05;;;2.92;;
23868;SDS011;12115;47.128;15.422;2024-03-23T05:16:52;6.57;;;3.47;;
23868;SDS011;12115;47.128;15.422;2024-03-23T05:19:20;6.82;;;3.08;;
23868;SDS011;12115;47.128;15.422;2024-03-23T05:21:46;5.03;;;3.28;;
23868;SDS011;12115;47.128;15.422;2024-03-23T05:24:13;6.30;;;2.65;;
23868;SDS011;12115;47.128;15.422;2024-03-23T05:26:39;4.32;;;2.58;;
23868;SDS011;12115;47.128;15.422;2024-03-23T05:29:06;4.28;;;2.70;;
23868;SDS011;12115;47.128;15.422;2024-03-23T05:31:36;3.75;;;2.63;;
23868;SDS011;12115;47.128;15.422;2024-03-23T05:34:03;6.47;;;3.53;;
23868;SDS011;12115;47.128;15.422;2024-03-23T05:36:29;4.95;;;3.00;;
23868;SDS011;12115;47.128;15.422;2024-03-23T05:38:55;4.03;;;2.45;;
23868;SDS011;12115;47.128;15.422;2024-03-23T05:41:21;6.03;;;2.63;;
23868;SDS011;12115;47.128;15.422;2024-03-23T05:43:49;4.50;;;2.65;;
23868;SDS011;12115;47.128;15.422;2024-03-23T05:46:15;4.00;;;2.30;;
23868;SDS011;12115;47.128;15.422;2024-03-23T05:48:43;5.13;;;2.55;;
23868;SDS011;12115;47.128;15.422;2024-03-23T05:51:09;3.05;;;2.40;;
23868;SDS011;12115;47.128;15.422;2024-03-23T05:53:38;5.25;;;2.60;;
23868;SDS011;12115;47.128;15.422;2024-03-23T05:56:04;4.50;;;2.83;;
23868;SDS011;12115;47.128;15.422;2024-03-23T05:58:30;7.43;;;2.72;;
23868;SDS011;12115;47.128;15.422;2024-03-23T06:00:58;10.40;;;6.57;;
23868;SDS011;12115;47.128;15.422;2024-03-23T06:03:26;6.13;;;4.50;;
23868;SDS011;12115;47.128;15.422;2024-03-23T06:05:54;7.53;;;4.72;;
23868;SDS011;12115;47.128;15.422;2024-03-23T06:08:20;8.50;;;4.55;;
23868;SDS011;12115;47.128;15.422;2024-03-23T06:10:46;6.07;;;4.50;;
23868;SDS011;12115;47.128;15.422;2024-03-23T06:13:13;8.57;;;3.88;;
23868;SDS011;12115;47.128;15.422;2024-03-23T06:15:39;7.72;;;4.00;;
23868;SDS011;12115;47.128;15.422;2024-03-23T06:18:10;6.38;;;3.80;;
23868;SDS011;12115;47.128;15.422;2024-03-23T06:20:42;5.65;;;3.53;;
23868;SDS011;12115;47.128;15.422;2024-03-23T06:23:10;6.85;;;3.40;;
23868;SDS011;12115;47.128;15.422;2024-03-23T06:25:38;6.47;;;3.50;;
23868;SDS011;12115;47.128;15.422;2024-03-23T06:28:05;5.25;;;3.13;;
23868;SDS011;12115;47.128;15.422;2024-03-23T06:30:31;6.05;;;2.85;;
23868;SDS011;12115;47.128;15.422;2024-03-23T06:32:57;7.43;;;3.20;;
23868;SDS011;12115;47.128;15.422;2024-03-23T06:35:23;4.47;;;3.03;;
23868;SDS011;12115;47.128;15.422;2024-03-23T06:37:49;4.38;;;2.33;;
23868;SDS011;12115;47.128;15.422;2024-03-23T06:40:15;5.05;;;3.10;;
23868;SDS011;12115;47.128;15.422;2024-03-23T06:42:41;5.47;;;3.30;;
23868;SDS011;12115;47.128;15.422;2024-03-23T06:45:08;7.65;;;4.13;;
23868;SDS011;12115;47.128;15.422;2024-03-23T06:47:34;8.65;;;3.78;;
23868;SDS011;12115;47.128;15.422;2024-03-23T06:50:02;7.63;;;3.95;;
23868;SDS011;12115;47.128;15.422;2024-03-23T06:52:29;6.53;;;3.47;;
23868;SDS011;12115;47.128;15.422;2024-03-23T06:54:55;7.75;;;3.67;;
23868;SDS011;12115;47.128;15.422;2024-03-23T06:57:22;7.57;;;3.85;;
23868;SDS011;12115;47.128;15.422;2024-03-23T06:59:48;7.20;;;3.85;;
23868;SDS011;12115;47.128;15.422;2024-03-23T07:02:14;5.78;;;3.72;;
23868;SDS011;12115;47.128;15.422;2024-03-23T07:04:41;4.00;;;2.67;;
23868;SDS011;12115;47.128;15.422;2024-03-23T07:07:07;5.28;;;3.22;;
23868;SDS011;12115;47.128;15.422;2024-03-23T07:09:33;5.53;;;3.10;;
23868;SDS011;12115;47.128;15.422;2024-03-23T07:11:59;8.48;;;2.80;;
23868;SDS011;12115;47.128;15.422;2024-03-23T07:14:26;5.75;;;2.88;;
23868;SDS011;12115;47.128;15.422;2024-03-23T07:16:52;4.10;;;2.75;;
23868;SDS011;12115;47.128;15.422;2024-03-23T07:19:18;8.60;;;3.58;;
23868;SDS011;12115;47.128;15.422;2024-03-23T07:21:44;4.93;;;3.03;;
23868;SDS011;12115;47.128;15.422;2024-03-23T07:24:11;6.72;;;3.03;;
23868;SDS011;12115;47.128;15.422;2024-03-23T07:26:37;6.65;;;2.92;;
23868;SDS011;12115;47.128;15.422;2024-03-23T07:29:07;6.13;;;2.67;;
23868;SDS011;12115;47.128;15.422;2024-03-23T07:31:33;6.63;;;3.10;;
23868;SDS011;12115;47.128;15.422;2024-03-23T07:33:59;5.97;;;2.95;;
23868;SDS011;12115;47.128;15.422;2024-03-23T07:36:25;4.97;;;2.83;;
23868;SDS011;12115;47.128;15.422;2024-03-23T07:38:51;6.65;;;2.92;;
23868;SDS011;12115;47.128;15.422;2024-03-23T07:41:18;5.72;;;2.90;;
23868;SDS011;12115;47.128;15.422;2024-03-23T07:43:47;3.50;;;2.15;;
23868;SDS011;12115;47.128;15.422;2024-03-23T07:46:14;4.00;;;2.55;;
23868;SDS011;12115;47.128;15.422;2024-03-23T07:48:41;4.55;;;3.10;;
23868;SDS011;12115;47.128;15.422;2024-03-23T07:53:35;4.30;;;3.00;;
23868;SDS011;12115;47.128;15.422;2024-03-23T07:58:32;5.60;;;2.97;;
23868;SDS011;12115;47.128;15.422;2024-03-23T08:01:06;6.65;;;2.72;;
23868;SDS011;12115;47.128;15.422;2024-03-23T08:03:36;7.30;;;3.08;;
23868;SDS011;12115;47.128;15.422;2024-03-23T08:06:07;4.70;;;3.28;;
23868;SDS011;12115;47.128;15.422;2024-03-23T08:08:34;4.75;;;2.95;;
23868;SDS011;12115;47.128;15.422;2024-03-23T08:11:01;4.72;;;2.95;;
23868;SDS011;12115;47.128;15.422;2024-03-23T08:13:28;8.65;;;3.25;;
23868;SDS011;12115;47.128;15.422;2024-03-23T08:15:57;6.72;;;3.30;;
23868;SDS011;12115;47.128;15.422;2024-03-23T08:18:24;7.32;;;2.95;;
23868;SDS011;12115;47.128;15.422;2024-03-23T08:23:27;7.53;;;2.97;;
23868;SDS011;12115;47.128;15.422;2024-03-23T08:26:00;5.07;;;3.20;;
23868;SDS011;12115;47.128;15.422;2024-03-23T08:28:27;6.40;;;2.80;;
23868;SDS011;12115;47.128;15.422;2024-03-23T08:30:54;4.35;;;2.60;;
23868;SDS011;12115;47.128;15.422;2024-03-23T08:33:21;4.82;;;3.15;;
23868;SDS011;12115;47.128;15.422;2024-03-23T08:35:55;5.53;;;2.67;;
23868;SDS011;12115;47.128;15.422;2024-03-23T08:38:32;4.88;;;3.00;;
23868;SDS011;12115;47.128;15.422;2024-03-23T08:40:59;4.72;;;2.72;;
23868;SDS011;12115;47.128;15.422;2024-03-23T08:43:28;5.03;;;2.75;;
23868;SDS011;12115;47.128;15.422;2024-03-23T08:46:04;4.90;;;2.72;;
23868;SDS011;12115;47.128;15.422;2024-03-23T08:48:31;7.20;;;2.90;;
23868;SDS011;12115;47.128;15.422;2024-03-23T08:50:59;5.32;;;2.95;;
23868;SDS011;12115;47.128;15.422;2024-03-23T08:53:29;5.30;;;2.58;;
23868;SDS011;12115;47.128;15.422;2024-03-23T08:55:56;3.00;;;2.38;;
23868;SDS011;12115;47.128;15.422;2024-03-23T08:58:23;3.72;;;2.50;;
23868;SDS011;12115;47.128;15.422;2024-03-23T09:00:50;4.95;;;2.55;;
23868;SDS011;12115;47.128;15.422;2024-03-23T09:03:17;4.57;;;2.80;;
23868;SDS011;12115;47.128;15.422;2024-03-23T09:05:43;6.90;;;2.55;;
23868;SDS011;12115;47.128;15.422;2024-03-23T09:08:09;5.50;;;2.20;;
23868;SDS011;12115;47.128;15.422;2024-03-23T09:10:39;3.15;;;2.42;;
23868;SDS011;12115;47.128;15.422;2024-03-23T09:13:05;7.10;;;2.30;;
23868;SDS011;12115;47.128;15.422;2024-03-23T09:15:33;3.95;;;2.10;;
23868;SDS011;12115;47.128;15.422;2024-03-23T09:18:00;5.75;;;2.13;;
23868;SDS011;12115;47.128;15.422;2024-03-23T09:20:26;4.35;;;2.45;;
23868;SDS011;12115;47.128;15.422;2024-03-23T09:22:52;3.58;;;2.13;;
23868;SDS011;12115;47.128;15.422;2024-03-23T09:25:18;5.32;;;2.58;;
23868;SDS011;12115;47.128;15.422;2024-03-23T09:27:46;3.97;;;2.60;;
23868;SDS011;12115;47.128;15.422;2024-03-23T09:30:12;4.53;;;2.58;;
23868;SDS011;12115;47.128;15.422;2024-03-23T09:32:43;3.75;;;2.58;;
23868;SDS011;12115;47.128;15.422;2024-03-23T09:35:10;5.75;;;2.40;;
23868;SDS011;12115;47.128;15.422;2024-03-23T09:37:36;3.97;;;2.20;;
23868;SDS011;12115;47.128;15.422;2024-03-23T09:40:05;3.35;;;2.20;;
23868;SDS011;12115;47.128;15.422;2024-03-23T09:42:35;3.53;;;2.45;;
23868;SDS011;12115;47.128;15.422;2024-03-23T09:45:02;4.32;;;2.03;;
23868;SDS011;12115;47.128;15.422;2024-03-23T09:47:32;7.13;;;2.75;;
23868;SDS011;12115;47.128;15.422;2024-03-23T09:49:59;6.57;;;3.55;;
23868;SDS011;12115;47.128;15.422;2024-03-23T09:52:26;7.53;;;3.47;;
23868;SDS011;12115;47.128;15.422;2024-03-23T09:54:52;7.80;;;3.53;;
23868;SDS011;12115;47.128;15.422;2024-03-23T09:57:18;8.60;;;3.88;;
23868;SDS011;12115;47.128;15.422;2024-03-23T09:59:44;6.18;;;3.85;;
23868;SDS011;12115;47.128;15.422;2024-03-23T10:02:11;7.57;;;3.88;;
23868;SDS011;12115;47.128;15.422;2024-03-23T10:04:49;9.63;;;4.40;;
23868;SDS011;12115;47.128;15.422;2024-03-23T10:07:29;9.05;;;3.88;;
23868;SDS011;12115;47.128;15.422;2024-03-23T10:09:56;9.25;;;3.80;;
23868;SDS011;12115;47.128;15.422;2024-03-23T10:12:22;6.57;;;4.00;;
23868;SDS011;12115;47.128;15.422;2024-03-23T10:15:12;7.65;;;3.38;;
23868;SDS011;12115;47.128;15.422;2024-03-23T10:18:58;6.38;;;3.58;;
23868;SDS011;12115;47.128;15.422;2024-03-23T10:21:24;4.30;;;3.00;;
23868;SDS011;12115;47.128;15.422;2024-03-23T10:23:51;4.78;;;3.08;;
23868;SDS011;12115;47.128;15.422;2024-03-23T10:28:57;9.13;;;3.15;;
23868;SDS011;12115;47.128;15.422;2024-03-23T10:31:29;5.70;;;2.80;;
23868;SDS011;12115;47.128;15.422;2024-03-23T10:33:58;6.88;;;2.85;;
23868;SDS011;12115;47.128;15.422;2024-03-23T10:36:26;7.65;;;2.40;;
23868;SDS011;12115;47.128;15.422;2024-03-23T10:38:54;6.13;;;2.40;;
23868;SDS011;12115;47.128;15.422;2024-03-23T10:41:20;5.03;;;2.20;;
23868;SDS011;12115;47.128;15.422;2024-03-23T10:43:47;3.13;;;2.42;;
23868;SDS011;12115;47.128;15.422;2024-03-23T10:46:14;2.92;;;2.08;;
23868;SDS011;12115;47.128;15.422;2024-03-23T10:48:41;4.78;;;2.35;;
23868;SDS011;12115;47.128;15.422;2024-03-23T10:51:08;4.50;;;2.22;;
23868;SDS011;12115;47.128;15.422;2024-03-23T10:53:36;5.28;;;2.20;;
23868;SDS011;12115;47.128;15.422;2024-03-23T10:56:02;4.13;;;2.42;;
23868;SDS011;12115;47.128;15.422;2024-03-23T11:00:58;3.67;;;2.17;;
23868;SDS011;12115;47.128;15.422;2024-03-23T11:03:32;3.55;;;1.67;;
23868;SDS011;12115;47.128;15.422;2024-03-23T11:06:03;4.88;;;1.80;;
23868;SDS011;12115;47.128;15.422;2024-03-23T11:08:40;5.72;;;2.58;;
23868;SDS011;12115;47.128;15.422;2024-03-23T11:11:14;3.33;;;2.35;;
23868;SDS011;12115;47.128;15.422;2024-03-23T11:13:50;2.92;;;1.92;;
23868;SDS011;12115;47.128;15.422;2024-03-23T11:16:27;2.67;;;2.17;;
23868;SDS011;12115;47.128;15.422;2024-03-23T11:21:59;4.97;;;2.25;;
23868;SDS011;12115;47.128;15.422;2024-03-23T11:24:26;2.80;;;1.83;;
23868;SDS011;12115;47.128;15.422;2024-03-23T11:26:52;2.05;;;1.77;;
23868;SDS011;12115;47.128;15.422;2024-03-23T11:29:18;3.92;;;1.80;;
23868;SDS011;12115;47.128;15.422;2024-03-23T11:31:51;2.38;;;1.85;;
23868;SDS011;12115;47.128;15.422;2024-03-23T11:34:21;3.00;;;1.80;;
23868;SDS011;12115;47.128;15.422;2024-03-23T11:36:48;4.45;;;1.65;;
23868;SDS011;12115;47.128;15.422;2024-03-23T11:44:25;4.57;;;1.92;;
23868;SDS011;12115;47.128;15.422;2024-03-23T11:46:52;2.47;;;1.60;;
23868;SDS011;12115;47.128;15.422;2024-03-23T11:49:25;2.78;;;2.00;;
23868;SDS011;12115;47.128;15.422;2024-03-23T11:51:53;2.50;;;1.90;;
23868;SDS011;12115;47.128;15.422;2024-03-23T11:54:21;2.25;;;1.63;;
23868;SDS011;12115;47.128;15.422;2024-03-23T11:56:58;2.63;;;1.83;;
23868;SDS011;12115;47.128;15.422;2024-03-23T12:01:58;3.35;;;2.22;;
23868;SDS011;12115;47.128;15.422;2024-03-23T12:04:25;2.83;;;1.60;;
23868;SDS011;12115;47.128;15.422;2024-03-23T12:09:49;6.55;;;2.25;;
23868;SDS011;12115;47.128;15.422;2024-03-23T12:12:34;2.85;;;2.20;;
23868;SDS011;12115;47.128;15.422;2024-03-23T12:15:01;2.47;;;1.85;;
23868;SDS011;12115;47.128;15.422;2024-03-23T12:17:31;4.22;;;1.98;;
23868;SDS011;12115;47.128;15.422;2024-03-23T12:19:58;3.50;;;2.20;;
23868;SDS011;12115;47.128;15.422;2024-03-23T12:22:24;2.92;;;2.15;;
23868;SDS011;12115;47.128;15.422;2024-03-23T12:24:51;7.00;;;2.10;;
23868;SDS011;12115;47.128;15.422;2024-03-23T12:27:17;3.80;;;2.08;;
23868;SDS011;12115;47.128;15.422;2024-03-23T12:29:43;3.85;;;2.20;;
23868;SDS011;12115;47.128;15.422;2024-03-23T12:32:11;3.53;;;2.22;;
23868;SDS011;12115;47.128;15.422;2024-03-23T12:34:38;3.45;;;1.80;;
23868;SDS011;12115;47.128;15.422;2024-03-23T12:37:04;3.53;;;2.30;;
23868;SDS011;12115;47.128;15.422;2024-03-23T12:39:34;4.93;;;2.50;;
23868;SDS011;12115;47.128;15.422;2024-03-23T12:42:04;4.07;;;2.00;;
23868;SDS011;12115;47.128;15.422;2024-03-23T12:44:31;4.32;;;2.97;;
23868;SDS011;12115;47.128;15.422;2024-03-23T12:46:57;6.88;;;2.75;;
23868;SDS011;12115;47.128;15.422;2024-03-23T12:49:23;5.40;;;2.70;;
23868;SDS011;12115;47.128;15.422;2024-03-23T12:51:53;5.50;;;2.70;;
23868;SDS011;12115;47.128;15.422;2024-03-23T12:54:23;6.32;;;3.60;;
23868;SDS011;12115;47.128;15.422;2024-03-23T12:56:50;3.90;;;2.60;;
23868;SDS011;12115;47.128;15.422;2024-03-23T12:59:16;3.13;;;2.63;;
23868;SDS011;12115;47.128;15.422;2024-03-23T13:01:44;5.97;;;2.53;;
23868;SDS011;12115;47.128;15.422;2024-03-23T13:04:13;4.07;;;2.60;;
23868;SDS011;12115;47.128;15.422;2024-03-23T13:06:40;3.70;;;2.55;;
23868;SDS011;12115;47.128;15.422;2024-03-23T13:09:06;6.18;;;2.67;;
23868;SDS011;12115;47.128;15.422;2024-03-23T13:11:32;3.95;;;2.50;;
23868;SDS011;12115;47.128;15.422;2024-03-23T13:13:58;4.32;;;2.20;;
23868;SDS011;12115;47.128;15.422;2024-03-23T13:16:25;4.43;;;2.47;;
23868;SDS011;12115;47.128;15.422;2024-03-23T13:18:51;3.88;;;1.83;;
23868;SDS011;12115;47.128;15.422;2024-03-23T13:21:17;3.47;;;2.58;;
23868;SDS011;12115;47.128;15.422;2024-03-23T13:23:46;4.32;;;2.72;;
23868;SDS011;12115;47.128;15.422;2024-03-23T13:26:13;5.30;;;3.40;;
23868;SDS011;12115;47.128;15.422;2024-03-23T13:28:39;3.53;;;2.20;;
23868;SDS011;12115;47.128;15.422;2024-03-23T13:31:10;3.55;;;2.20;;
23868;SDS011;12115;47.128;15.422;2024-03-23T13:33:36;4.93;;;2.40;;
23868;SDS011;12115;47.128;15.422;2024-03-23T13:36:03;3.88;;;2.10;;
23868;SDS011;12115;47.128;15.422;2024-03-23T13:38:29;4.63;;;2.30;;
23868;SDS011;12115;47.128;15.422;2024-03-23T13:40:56;3.38;;;2.40;;
23868;SDS011;12115;47.128;15.422;2024-03-23T13:43:23;2.97;;;2.28;;
23868;SDS011;12115;47.128;15.422;2024-03-23T13:45:56;4.75;;;2.30;;
23868;SDS011;12115;47.128;15.422;2024-03-23T13:48:23;5.32;;;2.63;;
23868;SDS011;12115;47.128;15.422;2024-03-23T13:51:01;3.13;;;2.67;;
23868;SDS011;12115;47.128;15.422;2024-03-23T13:53:28;3.08;;;2.05;;
23868;SDS011;12115;47.128;15.422;2024-03-23T13:55:55;2.85;;;1.90;;
23868;SDS011;12115;47.128;15.422;2024-03-23T13:58:22;2.83;;;1.90;;
23868;SDS011;12115;47.128;15.422;2024-03-23T14:00:56;5.30;;;2.38;;
23868;SDS011;12115;47.128;15.422;2024-03-23T14:03:23;5.97;;;1.95;;
23868;SDS011;12115;47.128;15.422;2024-03-23T14:05:49;2.92;;;2.30;;
23868;SDS011;12115;47.128;15.422;2024-03-23T14:08:17;3.47;;;1.98;;
23868;SDS011;12115;47.128;15.422;2024-03-23T14:10:43;3.42;;;2.25;;
23868;SDS011;12115;47.128;15.422;2024-03-23T14:13:10;4.68;;;2.15;;
23868;SDS011;12115;47.128;15.422;2024-03-23T14:15:36;2.72;;;2.05;;
23868;SDS011;12115;47.128;15.422;2024-03-23T14:18:02;2.17;;;1.85;;
23868;SDS011;12115;47.128;15.422;2024-03-23T14:20:29;2.28;;;1.88;;
23868;SDS011;12115;47.128;15.422;2024-03-23T14:22:55;3.65;;;2.13;;
23868;SDS011;12115;47.128;15.422;2024-03-23T14:25:21;2.97;;;1.88;;
23868;SDS011;12115;47.128;15.422;2024-03-23T14:27:52;4.85;;;2.70;;
23868;SDS011;12115;47.128;15.422;2024-03-23T14:30:18;4.68;;;2.42;;
23868;SDS011;12115;47.128;15.422;2024-03-23T14:32:44;3.42;;;2.33;;
23868;SDS011;12115;47.128;15.422;2024-03-23T14:35:11;3.65;;;2.28;;
23868;SDS011;12115;47.128;15.422;2024-03-23T14:37:37;4.05;;;2.30;;
23868;SDS011;12115;47.128;15.422;2024-03-23T14:40:03;4.05;;;2.17;;
23868;SDS011;12115;47.128;15.422;2024-03-23T14:42:30;3.65;;;2.33;;
23868;SDS011;12115;47.128;15.422;2024-03-23T14:44:59;3.35;;;2.60;;
23868;SDS011;12115;47.128;15.422;2024-03-23T14:47:25;4.30;;;2.33;;
23868;SDS011;12115;47.128;15.422;2024-03-23T14:49:51;3.20;;;2.50;;
23868;SDS011;12115;47.128;15.422;2024-03-23T14:52:17;3.35;;;2.15;;
23868;SDS011;12115;47.128;15.422;2024-03-23T14:54:44;5.20;;;2.72;;
23868;SDS011;12115;47.128;15.422;2024-03-23T14:57:11;2.72;;;2.33;;
23868;SDS011;12115;47.128;15.422;2024-03-23T14:59:37;4.75;;;3.00;;
23868;SDS011;12115;47.128;15.422;2024-03-23T15:02:04;3.10;;;1.40;;
23868;SDS011;12115;47.128;15.422;2024-03-23T15:04:31;4.63;;;0.70;;
23868;SDS011;12115;47.128;15.422;2024-03-23T15:06:57;5.90;;;1.13;;
23868;SDS011;12115;47.128;15.422;2024-03-23T15:09:23;2.20;;;0.80;;
23868;SDS011;12115;47.128;15.422;2024-03-23T15:11:50;2.30;;;0.90;;
23868;SDS011;12115;47.128;15.422;2024-03-23T15:17:07;1.00;;;0.45;;
23868;SDS011;12115;47.128;15.422;2024-03-23T15:19:34;1.33;;;0.50;;
23868;SDS011;12115;47.128;15.422;2024-03-23T15:22:04;0.50;;;0.50;;
23868;SDS011;12115;47.128;15.422;2024-03-23T15:24:37;3.85;;;0.60;;
23868;SDS011;12115;47.128;15.422;2024-03-23T15:27:04;4.93;;;0.55;;
23868;SDS011;12115;47.128;15.422;2024-03-23T15:29:30;2.78;;;0.35;;
23868;SDS011;12115;47.128;15.422;2024-03-23T15:31:57;2.65;;;0.32;;
23868;SDS011;12115;47.128;15.422;2024-03-23T15:34:23;0.93;;;0.30;;
23868;SDS011;12115;47.128;15.422;2024-03-23T15:36:50;4.60;;;0.30;;
23868;SDS011;12115;47.128;15.422;2024-03-23T15:39:19;1.65;;;0.30;;
23868;SDS011;12115;47.128;15.422;2024-03-23T15:41:48;2.03;;;0.13;;
23868;SDS011;12115;47.128;15.422;2024-03-23T15:44:14;2.10;;;0.20;;
23868;SDS011;12115;47.128;15.422;2024-03-23T15:46:41;4.40;;;0.20;;
23868;SDS011;12115;47.128;15.422;2024-03-23T15:49:11;0.73;;;0.10;;
23868;SDS011;12115;47.128;15.422;2024-03-23T15:51:43;1.95;;;0.13;;
23868;SDS011;12115;47.128;15.422;2024-03-23T15:54:13;8.80;;;0.30;;
23868;SDS011;12115;47.128;15.422;2024-03-23T15:56:42;4.25;;;0.15;;
23868;SDS011;12115;47.128;15.422;2024-03-23T15:59:10;1.42;;;0.20;;
23868;SDS011;12115;47.128;15.422;2024-03-23T16:01:37;2.42;;;0.20;;
23868;SDS011;12115;47.128;15.422;2024-03-23T16:04:06;0.03;;;0.00;;